Tikaboo Peak, Nevada Weather observations

Data are for 10 minute period ending at time listed.
 Day   Time   Solar   Ave.   Ave.  Ave.  Vector  Max.   Baro.   Total    
  of    of     Rad.   Air    Rel.  Wind   Wind   Wind  Press.  Precip.   
Year   Day            Temp.  Hum.  Speed  Dir.   Gust                    
2016   (PST)  Kw/m2    F      %     mph   deg.    mph    mb.     in.     
-------------------------------------------------------------------------
 273    9:20   100.00  99999.0   99999  99999.0   99999   99999.0   99999.0   99999.00 
 273    9:30   100.00  99999.0   99999  99999.0   99999   99999.0   99999.0   99999.00 
 273    9:40   100.00  99999.0   99999  99999.0   99999   99999.0   99999.0   99999.00 
 273    9:50   100.00  99999.0   99999  99999.0   99999   99999.0   99999.0   99999.00 
 273   10:00   100.00  99999.0   99999  99999.0   99999   99999.0   99999.0   99999.00 
 273   10:10   0.84  99999.0   99999   17.0     3   99999.0   99999.0   99999.00 
 273   10:20   100.00  99999.0   99999  99999.0   99999   99999.0   99999.0   99999.00 
 273   10:30   100.00  99999.0   99999  99999.0   99999   99999.0   99999.0   99999.00 
 273   10:40   100.00  99999.0   99999  99999.0   99999   99999.0   99999.0   99999.00 
 273   10:50   100.00  99999.0   99999  99999.0   99999   99999.0   99999.0   99999.00 
 273   11:00   100.00  99999.0   99999  99999.0   99999   99999.0   99999.0   99999.00 
 273   11:10   0.88  99999.0   99999   17.9     3   99999.0   99999.0   99999.00 
 273   11:20   100.00  99999.0   99999  99999.0   99999   99999.0   99999.0   99999.00 
 273   11:30   100.00  99999.0   99999  99999.0   99999   99999.0   99999.0   99999.00 
 273   11:40   100.00  99999.0   99999  99999.0   99999   99999.0   99999.0   99999.00 
 273   11:50   100.00  99999.0   99999  99999.0   99999   99999.0   99999.0   99999.00 
 273   12:00   100.00  99999.0   99999  99999.0   99999   99999.0   99999.0   99999.00 
 273   12:10   0.35  99999.0   99999   17.0     3   99999.0   99999.0   99999.00 
 273   12:20   100.00  99999.0   99999  99999.0   99999   99999.0   99999.0   99999.00 
 273   12:30   100.00  99999.0   99999  99999.0   99999   99999.0   99999.0   99999.00 
 273   12:40   100.00  99999.0   99999  99999.0   99999   99999.0   99999.0   99999.00 
 273   12:50   100.00  99999.0   99999  99999.0   99999   99999.0   99999.0   99999.00 
 273   13:00   100.00  99999.0   99999  99999.0   99999   99999.0   99999.0   99999.00 
 273   13:10   0.33  99999.0   99999   16.7     3   99999.0   99999.0   99999.00 
 273   13:20   100.00  99999.0   99999  99999.0   99999   99999.0   99999.0   99999.00 
 273   13:30   100.00  99999.0   99999  99999.0   99999   99999.0   99999.0   99999.00 
 273   13:40   100.00  99999.0   99999  99999.0   99999   99999.0   99999.0   99999.00 
 273   13:50   100.00  99999.0   99999  99999.0   99999   99999.0   99999.0   99999.00 
 273   14:00   100.00  99999.0   99999  99999.0   99999   99999.0   99999.0   99999.00 
 273   14:10   0.27  99999.0   99999   16.7     3   99999.0   99999.0   99999.00 
 273   14:20   100.00  99999.0   99999  99999.0   99999   99999.0   99999.0   99999.00 
 273   14:30   100.00  99999.0   99999  99999.0   99999   99999.0   99999.0   99999.00 
 273   14:40   100.00  99999.0   99999  99999.0   99999   99999.0   99999.0   99999.00 
 273   14:50   100.00  99999.0   99999  99999.0   99999   99999.0   99999.0   99999.00 
 273   15:00   100.00  99999.0   99999  99999.0   99999   99999.0   99999.0   99999.00 
 273   15:10   0.45  99999.0   99999   19.5     3   99999.0   99999.0   99999.00 
 273   15:20   100.00  99999.0   99999  99999.0   99999   99999.0   99999.0   99999.00 
 273   15:30   100.00  99999.0   99999  99999.0   99999   99999.0   99999.0   99999.00 
 273   15:40   100.00  99999.0   99999  99999.0   99999   99999.0   99999.0   99999.00 
 273   15:50   100.00  99999.0   99999  99999.0   99999   99999.0   99999.0   99999.00 
 273   16:00   100.00  99999.0   99999  99999.0   99999   99999.0   99999.0   99999.00 
 273   16:10   0.24  99999.0   99999   18.3     3   99999.0   99999.0   99999.00 
 273   16:20   100.00  99999.0   99999  99999.0   99999   99999.0   99999.0   99999.00 
 273   16:30   100.00  99999.0   99999  99999.0   99999   99999.0   99999.0   99999.00 
 273   16:40   100.00  99999.0   99999  99999.0   99999   99999.0   99999.0   99999.00 
 273   16:50   100.00  99999.0   99999  99999.0   99999   99999.0   99999.0   99999.00 
 273   17:00   100.00  99999.0   99999  99999.0   99999   99999.0   99999.0   99999.00 
 273   17:10   0.02  99999.0   99999   15.8     3   99999.0   99999.0   99999.00 
 273   17:20   100.00  99999.0   99999  99999.0   99999   99999.0   99999.0   99999.00 
 273   17:30   100.00  99999.0   99999  99999.0   99999   99999.0   99999.0   99999.00 
 273   17:40   100.00  99999.0   99999  99999.0   99999   99999.0   99999.0   99999.00 
 273   17:50   100.00  99999.0   99999  99999.0   99999   99999.0   99999.0   99999.00 
 273   18:00   100.00  99999.0   99999  99999.0   99999   99999.0   99999.0   99999.00 
 273   18:10   0.00  99999.0   99999   14.2     3   99999.0   99999.0   99999.00 
 273   18:20   100.00  99999.0   99999  99999.0   99999   99999.0   99999.0   99999.00 
 273   18:30   100.00  99999.0   99999  99999.0   99999   99999.0   99999.0   99999.00 
 273   18:40   100.00  99999.0   99999  99999.0   99999   99999.0   99999.0   99999.00 
 273   18:50   100.00  99999.0   99999  99999.0   99999   99999.0   99999.0   99999.00 
 273   19:00   100.00  99999.0   99999  99999.0   99999   99999.0   99999.0   99999.00 
 273   19:10   0.00  99999.0   99999   14.0     3   99999.0   99999.0   99999.00 
 273   19:20   100.00  99999.0   99999  99999.0   99999   99999.0   99999.0   99999.00 
 273   19:30   100.00  99999.0   99999  99999.0   99999   99999.0   99999.0   99999.00 
 273   19:40   100.00  99999.0   99999  99999.0   99999   99999.0   99999.0   99999.00 
 273   19:50   100.00  99999.0   99999  99999.0   99999   99999.0   99999.0   99999.00 
 273   20:00   100.00  99999.0   99999  99999.0   99999   99999.0   99999.0   99999.00 
 273   20:10   0.00  99999.0   99999   13.7     3   99999.0   99999.0   99999.00 
 273   20:20   100.00  99999.0   99999  99999.0   99999   99999.0   99999.0   99999.00 
 273   20:30   100.00  99999.0   99999  99999.0   99999   99999.0   99999.0   99999.00 
 273   20:40   100.00  99999.0   99999  99999.0   99999   99999.0   99999.0   99999.00 
 273   20:50   100.00  99999.0   99999  99999.0   99999   99999.0   99999.0   99999.00 
 273   21:00   100.00  99999.0   99999  99999.0   99999   99999.0   99999.0   99999.00 
 273   21:10   0.00  99999.0   99999   13.3     3   99999.0   99999.0   99999.00 
 273   21:20   100.00  99999.0   99999  99999.0   99999   99999.0   99999.0   99999.00 
 273   21:30   100.00  99999.0   99999  99999.0   99999   99999.0   99999.0   99999.00 
 273   21:40   100.00  99999.0   99999  99999.0   99999   99999.0   99999.0   99999.00 
 273   21:50   100.00  99999.0   99999  99999.0   99999   99999.0   99999.0   99999.00 
 273   22:00   100.00  99999.0   99999  99999.0   99999   99999.0   99999.0   99999.00 
 273   22:10   0.00  99999.0   99999   13.1     3   99999.0   99999.0   99999.00 
 273   22:20   100.00  99999.0   99999  99999.0   99999   99999.0   99999.0   99999.00 
 273   22:30   100.00  99999.0   99999  99999.0   99999   99999.0   99999.0   99999.00 
 273   22:40   100.00  99999.0   99999  99999.0   99999   99999.0   99999.0   99999.00 
 273   22:50   100.00  99999.0   99999  99999.0   99999   99999.0   99999.0   99999.00 
 273   23:00   100.00  99999.0   99999  99999.0   99999   99999.0   99999.0   99999.00 
 273   23:10   0.00  99999.0   99999   13.1     3   99999.0   99999.0   99999.00 
 273   23:20   100.00  99999.0   99999  99999.0   99999   99999.0   99999.0   99999.00 
 273   23:30   100.00  99999.0   99999  99999.0   99999   99999.0   99999.0   99999.00 
 273   23:40   100.00  99999.0   99999  99999.0   99999   99999.0   99999.0   99999.00 
 273   23:50   100.00  99999.0   99999  99999.0   99999   99999.0   99999.0   99999.00 
 274    0:00   100.00  99999.0   99999  99999.0   99999   99999.0   99999.0   99999.00 
 274    0:10   0.00  99999.0   99999   12.5     3   99999.0   99999.0   99999.00 
 274    0:20   100.00  99999.0   99999  99999.0   99999   99999.0   99999.0   99999.00 
 274    0:30   100.00  99999.0   99999  99999.0   99999   99999.0   99999.0   99999.00 
 274    0:40   100.00  99999.0   99999  99999.0   99999   99999.0   99999.0   99999.00 
 274    0:50   100.00  99999.0   99999  99999.0   99999   99999.0   99999.0   99999.00 
 274    1:00   100.00  99999.0   99999  99999.0   99999   99999.0   99999.0   99999.00 
 274    1:10   0.00  99999.0   99999   12.6     3   99999.0   99999.0   99999.00 
 274    1:20   100.00  99999.0   99999  99999.0   99999   99999.0   99999.0   99999.00 
 274    1:30   100.00  99999.0   99999  99999.0   99999   99999.0   99999.0   99999.00 
 274    1:40   100.00  99999.0   99999  99999.0   99999   99999.0   99999.0   99999.00 
 274    1:50   100.00  99999.0   99999  99999.0   99999   99999.0   99999.0   99999.00 
 274    2:00   100.00  99999.0   99999  99999.0   99999   99999.0   99999.0   99999.00 
 274    2:10   0.00  99999.0   99999   12.3     3   99999.0   99999.0   99999.00 
 274    2:20   100.00  99999.0   99999  99999.0   99999   99999.0   99999.0   99999.00 
 274    2:30   100.00  99999.0   99999  99999.0   99999   99999.0   99999.0   99999.00 
 274    2:40   100.00  99999.0   99999  99999.0   99999   99999.0   99999.0   99999.00 
 274    2:50   100.00  99999.0   99999  99999.0   99999   99999.0   99999.0   99999.00 
 274    3:00   100.00  99999.0   99999  99999.0   99999   99999.0   99999.0   99999.00 
 274    3:10   0.00  99999.0   99999   12.2     3   99999.0   99999.0   99999.00 
 274    3:20   100.00  99999.0   99999  99999.0   99999   99999.0   99999.0   99999.00 
 274    3:30   100.00  99999.0   99999  99999.0   99999   99999.0   99999.0   99999.00 
 274    3:40   100.00  99999.0   99999  99999.0   99999   99999.0   99999.0   99999.00 
 274    3:50   100.00  99999.0   99999  99999.0   99999   99999.0   99999.0   99999.00 
 274    4:00   100.00  99999.0   99999  99999.0   99999   99999.0   99999.0   99999.00 
 274    4:10   0.00  99999.0   99999   12.2     3   99999.0   99999.0   99999.00 
 274    4:20   100.00  99999.0   99999  99999.0   99999   99999.0   99999.0   99999.00 
 274    4:30   100.00  99999.0   99999  99999.0   99999   99999.0   99999.0   99999.00 
 274    4:40   100.00  99999.0   99999  99999.0   99999   99999.0   99999.0   99999.00 
 274    4:50   100.00  99999.0   99999  99999.0   99999   99999.0   99999.0   99999.00 
 274    5:00   100.00  99999.0   99999  99999.0   99999   99999.0   99999.0   99999.00 
 274    5:10   0.00  99999.0   99999   11.7     3   99999.0   99999.0   99999.00 
 274    5:20   100.00  99999.0   99999  99999.0   99999   99999.0   99999.0   99999.00 
 274    5:30   100.00  99999.0   99999  99999.0   99999   99999.0   99999.0   99999.00 
 274    5:40   100.00  99999.0   99999  99999.0   99999   99999.0   99999.0   99999.00 
 274    5:50   100.00  99999.0   99999  99999.0   99999   99999.0   99999.0   99999.00 
 274    6:00   100.00  99999.0   99999  99999.0   99999   99999.0   99999.0   99999.00 
 274    6:10   0.05  99999.0   99999   11.7     3   99999.0   99999.0   99999.00 
 274    6:20   100.00  99999.0   99999  99999.0   99999   99999.0   99999.0   99999.00 
 274    6:30   100.00  99999.0   99999  99999.0   99999   99999.0   99999.0   99999.00 
 274    6:40   100.00  99999.0   99999  99999.0   99999   99999.0   99999.0   99999.00 
 274    6:50   100.00  99999.0   99999  99999.0   99999   99999.0   99999.0   99999.00 
 274    7:00   100.00  99999.0   99999  99999.0   99999   99999.0   99999.0   99999.00 
 274    7:10   0.34  99999.0   99999   14.1     3   99999.0   99999.0   99999.00 
 274    7:20   100.00  99999.0   99999  99999.0   99999   99999.0   99999.0   99999.00 
 274    7:30   100.00  99999.0   99999  99999.0   99999   99999.0   99999.0   99999.00 
 274    7:40   100.00  99999.0   99999  99999.0   99999   99999.0   99999.0   99999.00 
 274    7:50   100.00  99999.0   99999  99999.0   99999   99999.0   99999.0   99999.00 
 274    8:00   100.00  99999.0   99999  99999.0   99999   99999.0   99999.0   99999.00 
 274    8:10   0.55  99999.0   99999   15.3     3   99999.0   99999.0   99999.00 
 274    8:20   100.00  99999.0   99999  99999.0   99999   99999.0   99999.0   99999.00 
 274    8:30   100.00  99999.0   99999  99999.0   99999   99999.0   99999.0   99999.00 
 274    8:40   100.00  99999.0   99999  99999.0   99999   99999.0   99999.0   99999.00 
 274    8:50   100.00  99999.0   99999  99999.0   99999   99999.0   99999.0   99999.00 
 274    9:00   100.00  99999.0   99999  99999.0   99999   99999.0   99999.0   99999.00 
 274    9:10   0.72  99999.0   99999   17.6     3   99999.0   99999.0   99999.00 

Return to Tikaboo Peak graphs page.


Western Regional Climate Center,wrcc@dri.edu